sensor_id;sensor_type;location;lat;lon;timestamp;P1;durP1;ratioP1;P2;durP2;ratioP2
74777;SDS011;63298;53.164;8.610;2022-09-09T00:04:26;8.55;;;6.05;;
74777;SDS011;63298;53.164;8.610;2022-09-09T00:12:31;7.65;;;5.68;;
74777;SDS011;63298;53.164;8.610;2022-09-09T00:17:50;8.73;;;5.68;;
74777;SDS011;63298;53.164;8.610;2022-09-09T00:20:36;7.18;;;5.95;;
74777;SDS011;63298;53.164;8.610;2022-09-09T00:31:23;8.60;;;5.80;;
74777;SDS011;63298;53.164;8.610;2022-09-09T00:33:52;8.40;;;5.95;;
74777;SDS011;63298;53.164;8.610;2022-09-09T00:36:20;7.57;;;5.30;;
74777;SDS011;63298;53.164;8.610;2022-09-09T00:38:49;7.18;;;5.90;;
74777;SDS011;63298;53.164;8.610;2022-09-09T00:43:49;8.40;;;6.15;;
74777;SDS011;63298;53.164;8.610;2022-09-09T00:46:28;14.02;;;6.18;;
74777;SDS011;63298;53.164;8.610;2022-09-09T00:57:30;15.07;;;7.07;;
74777;SDS011;63298;53.164;8.610;2022-09-09T01:00:14;13.45;;;7.47;;
74777;SDS011;63298;53.164;8.610;2022-09-09T01:02:53;14.02;;;7.40;;
74777;SDS011;63298;53.164;8.610;2022-09-09T01:11:07;11.27;;;7.07;;
74777;SDS011;63298;53.164;8.610;2022-09-09T01:13:40;12.35;;;7.63;;
74777;SDS011;63298;53.164;8.610;2022-09-09T01:16:08;11.48;;;7.93;;
74777;SDS011;63298;53.164;8.610;2022-09-09T01:18:36;12.70;;;6.93;;
74777;SDS011;63298;53.164;8.610;2022-09-09T01:21:19;9.98;;;7.05;;
74777;SDS011;63298;53.164;8.610;2022-09-09T01:26:35;11.23;;;7.97;;
74777;SDS011;63298;53.164;8.610;2022-09-09T01:29:07;9.48;;;7.57;;
74777;SDS011;63298;53.164;8.610;2022-09-09T01:34:23;9.70;;;7.00;;
74777;SDS011;63298;53.164;8.610;2022-09-09T01:39:33;12.90;;;8.65;;
74777;SDS011;63298;53.164;8.610;2022-09-09T01:42:00;11.65;;;7.93;;
74777;SDS011;63298;53.164;8.610;2022-09-09T01:44:26;12.95;;;8.20;;
74777;SDS011;63298;53.164;8.610;2022-09-09T01:46:53;12.30;;;7.40;;
74777;SDS011;63298;53.164;8.610;2022-09-09T01:49:18;14.23;;;8.50;;
74777;SDS011;63298;53.164;8.610;2022-09-09T01:51:45;10.80;;;7.63;;
74777;SDS011;63298;53.164;8.610;2022-09-09T01:54:14;10.98;;;7.88;;
74777;SDS011;63298;53.164;8.610;2022-09-09T01:56:50;12.18;;;8.70;;
74777;SDS011;63298;53.164;8.610;2022-09-09T02:02:17;12.48;;;8.48;;
74777;SDS011;63298;53.164;8.610;2022-09-09T02:04:45;13.75;;;7.40;;
74777;SDS011;63298;53.164;8.610;2022-09-09T02:10:21;13.77;;;7.30;;
74777;SDS011;63298;53.164;8.610;2022-09-09T02:12:55;13.18;;;7.50;;
74777;SDS011;63298;53.164;8.610;2022-09-09T02:15:37;11.38;;;7.40;;
74777;SDS011;63298;53.164;8.610;2022-09-09T02:18:12;14.10;;;7.28;;
74777;SDS011;63298;53.164;8.610;2022-09-09T02:20:40;10.40;;;7.07;;
74777;SDS011;63298;53.164;8.610;2022-09-09T02:23:08;11.80;;;7.95;;
74777;SDS011;63298;53.164;8.610;2022-09-09T02:25:36;13.38;;;6.80;;
74777;SDS011;63298;53.164;8.610;2022-09-09T02:28:03;10.60;;;7.30;;
74777;SDS011;63298;53.164;8.610;2022-09-09T02:30:32;12.60;;;7.30;;
74777;SDS011;63298;53.164;8.610;2022-09-09T02:32:59;9.13;;;6.85;;
74777;SDS011;63298;53.164;8.610;2022-09-09T02:35:28;9.63;;;6.68;;
74777;SDS011;63298;53.164;8.610;2022-09-09T02:37:56;8.70;;;6.55;;
74777;SDS011;63298;53.164;8.610;2022-09-09T02:40:26;13.15;;;7.47;;
74777;SDS011;63298;53.164;8.610;2022-09-09T02:42:51;10.85;;;7.18;;
74777;SDS011;63298;53.164;8.610;2022-09-09T02:45:20;9.45;;;6.85;;
74777;SDS011;63298;53.164;8.610;2022-09-09T02:50:34;9.65;;;6.97;;
74777;SDS011;63298;53.164;8.610;2022-09-09T02:53:09;9.75;;;6.57;;
74777;SDS011;63298;53.164;8.610;2022-09-09T02:55:41;11.05;;;6.63;;
74777;SDS011;63298;53.164;8.610;2022-09-09T02:58:13;12.20;;;8.13;;
74777;SDS011;63298;53.164;8.610;2022-09-09T03:00:42;9.98;;;6.35;;
74777;SDS011;63298;53.164;8.610;2022-09-09T03:03:09;9.57;;;6.05;;
74777;SDS011;63298;53.164;8.610;2022-09-09T03:05:34;10.95;;;6.85;;
74777;SDS011;63298;53.164;8.610;2022-09-09T03:08:00;8.18;;;5.95;;
74777;SDS011;63298;53.164;8.610;2022-09-09T03:10:26;10.65;;;6.80;;
74777;SDS011;63298;53.164;8.610;2022-09-09T03:12:51;11.15;;;6.47;;
74777;SDS011;63298;53.164;8.610;2022-09-09T03:15:17;11.20;;;6.47;;
74777;SDS011;63298;53.164;8.610;2022-09-09T03:17:43;8.68;;;6.85;;
74777;SDS011;63298;53.164;8.610;2022-09-09T03:20:08;11.68;;;6.22;;
74777;SDS011;63298;53.164;8.610;2022-09-09T03:22:34;9.60;;;6.53;;
74777;SDS011;63298;53.164;8.610;2022-09-09T03:24:59;10.55;;;6.03;;
74777;SDS011;63298;53.164;8.610;2022-09-09T03:27:25;10.43;;;6.47;;
74777;SDS011;63298;53.164;8.610;2022-09-09T03:29:50;12.10;;;6.63;;
74777;SDS011;63298;53.164;8.610;2022-09-09T03:32:16;12.30;;;5.93;;
74777;SDS011;63298;53.164;8.610;2022-09-09T03:34:41;9.73;;;6.00;;
74777;SDS011;63298;53.164;8.610;2022-09-09T03:37:06;9.73;;;6.00;;
74777;SDS011;63298;53.164;8.610;2022-09-09T03:39:32;10.30;;;6.07;;
74777;SDS011;63298;53.164;8.610;2022-09-09T03:41:57;8.17;;;5.77;;
74777;SDS011;63298;53.164;8.610;2022-09-09T03:44:22;10.50;;;5.70;;
74777;SDS011;63298;53.164;8.610;2022-09-09T03:46:48;8.70;;;5.82;;
74777;SDS011;63298;53.164;8.610;2022-09-09T03:49:13;11.40;;;7.63;;
74777;SDS011;63298;53.164;8.610;2022-09-09T03:51:39;13.45;;;6.55;;
74777;SDS011;63298;53.164;8.610;2022-09-09T03:54:04;7.28;;;5.63;;
74777;SDS011;63298;53.164;8.610;2022-09-09T03:56:29;11.00;;;5.38;;
74777;SDS011;63298;53.164;8.610;2022-09-09T03:58:55;9.55;;;6.00;;
74777;SDS011;63298;53.164;8.610;2022-09-09T04:01:21;8.57;;;6.23;;
74777;SDS011;63298;53.164;8.610;2022-09-09T04:03:46;8.43;;;5.33;;
74777;SDS011;63298;53.164;8.610;2022-09-09T04:06:12;10.23;;;5.93;;
74777;SDS011;63298;53.164;8.610;2022-09-09T04:08:38;9.38;;;5.55;;
74777;SDS011;63298;53.164;8.610;2022-09-09T04:11:03;9.10;;;5.23;;
74777;SDS011;63298;53.164;8.610;2022-09-09T04:13:28;7.88;;;5.90;;
74777;SDS011;63298;53.164;8.610;2022-09-09T04:15:55;10.13;;;5.53;;
74777;SDS011;63298;53.164;8.610;2022-09-09T04:18:21;11.13;;;5.90;;
74777;SDS011;63298;53.164;8.610;2022-09-09T04:20:48;10.38;;;5.25;;
74777;SDS011;63298;53.164;8.610;2022-09-09T04:23:14;9.05;;;5.07;;
74777;SDS011;63298;53.164;8.610;2022-09-09T04:25:50;11.32;;;5.90;;
74777;SDS011;63298;53.164;8.610;2022-09-09T04:28:17;10.30;;;5.43;;
74777;SDS011;63298;53.164;8.610;2022-09-09T04:30:44;7.40;;;5.25;;
74777;SDS011;63298;53.164;8.610;2022-09-09T04:33:11;9.10;;;5.10;;
74777;SDS011;63298;53.164;8.610;2022-09-09T04:35:37;10.20;;;4.43;;
74777;SDS011;63298;53.164;8.610;2022-09-09T04:38:03;8.32;;;5.13;;
74777;SDS011;63298;53.164;8.610;2022-09-09T04:40:30;9.57;;;4.78;;
74777;SDS011;63298;53.164;8.610;2022-09-09T04:43:00;5.78;;;4.88;;
74777;SDS011;63298;53.164;8.610;2022-09-09T04:45:26;6.50;;;4.88;;
74777;SDS011;63298;53.164;8.610;2022-09-09T04:47:52;6.68;;;4.72;;
74777;SDS011;63298;53.164;8.610;2022-09-09T04:50:18;7.25;;;4.93;;
74777;SDS011;63298;53.164;8.610;2022-09-09T04:52:43;10.13;;;5.38;;
74777;SDS011;63298;53.164;8.610;2022-09-09T04:55:09;8.77;;;4.65;;
74777;SDS011;63298;53.164;8.610;2022-09-09T04:57:34;14.63;;;4.50;;
74777;SDS011;63298;53.164;8.610;2022-09-09T04:59:59;8.80;;;5.10;;
74777;SDS011;63298;53.164;8.610;2022-09-09T05:02:25;8.20;;;5.00;;
74777;SDS011;63298;53.164;8.610;2022-09-09T05:04:51;7.47;;;4.45;;
74777;SDS011;63298;53.164;8.610;2022-09-09T05:07:16;9.73;;;4.17;;
74777;SDS011;63298;53.164;8.610;2022-09-09T05:09:42;8.47;;;5.00;;
74777;SDS011;63298;53.164;8.610;2022-09-09T05:12:07;9.07;;;5.03;;
74777;SDS011;63298;53.164;8.610;2022-09-09T05:14:32;11.73;;;5.57;;
74777;SDS011;63298;53.164;8.610;2022-09-09T05:16:58;7.90;;;4.50;;
74777;SDS011;63298;53.164;8.610;2022-09-09T05:19:23;7.83;;;4.57;;
74777;SDS011;63298;53.164;8.610;2022-09-09T05:21:48;12.07;;;4.90;;
74777;SDS011;63298;53.164;8.610;2022-09-09T05:24:14;8.87;;;4.50;;
74777;SDS011;63298;53.164;8.610;2022-09-09T05:26:39;7.07;;;3.90;;
74777;SDS011;63298;53.164;8.610;2022-09-09T05:29:04;8.05;;;4.38;;
74777;SDS011;63298;53.164;8.610;2022-09-09T05:31:30;8.70;;;4.97;;
74777;SDS011;63298;53.164;8.610;2022-09-09T05:33:55;7.88;;;4.25;;
74777;SDS011;63298;53.164;8.610;2022-09-09T05:36:21;10.15;;;4.15;;
74777;SDS011;63298;53.164;8.610;2022-09-09T05:38:47;7.10;;;4.00;;
74777;SDS011;63298;53.164;8.610;2022-09-09T05:41:13;8.35;;;4.63;;
74777;SDS011;63298;53.164;8.610;2022-09-09T05:43:39;13.77;;;4.70;;
74777;SDS011;63298;53.164;8.610;2022-09-09T05:46:08;18.50;;;4.67;;
74777;SDS011;63298;53.164;8.610;2022-09-09T05:48:35;13.07;;;4.45;;
74777;SDS011;63298;53.164;8.610;2022-09-09T05:51:03;6.85;;;3.70;;
74777;SDS011;63298;53.164;8.610;2022-09-09T05:53:30;7.20;;;4.43;;
74777;SDS011;63298;53.164;8.610;2022-09-09T05:56:03;8.15;;;4.47;;
74777;SDS011;63298;53.164;8.610;2022-09-09T05:58:39;8.18;;;3.70;;
74777;SDS011;63298;53.164;8.610;2022-09-09T06:01:06;10.20;;;3.88;;
74777;SDS011;63298;53.164;8.610;2022-09-09T06:03:36;7.13;;;3.97;;
74777;SDS011;63298;53.164;8.610;2022-09-09T06:06:06;8.73;;;4.38;;
74777;SDS011;63298;53.164;8.610;2022-09-09T06:08:34;7.03;;;3.65;;
74777;SDS011;63298;53.164;8.610;2022-09-09T06:11:01;8.30;;;4.93;;
74777;SDS011;63298;53.164;8.610;2022-09-09T06:13:28;7.65;;;4.32;;
74777;SDS011;63298;53.164;8.610;2022-09-09T06:15:55;4.53;;;3.67;;
74777;SDS011;63298;53.164;8.610;2022-09-09T06:18:20;8.40;;;3.60;;
74777;SDS011;63298;53.164;8.610;2022-09-09T06:20:56;8.23;;;3.92;;
74777;SDS011;63298;53.164;8.610;2022-09-09T06:23:26;8.98;;;4.10;;
74777;SDS011;63298;53.164;8.610;2022-09-09T06:26:00;5.82;;;3.60;;
74777;SDS011;63298;53.164;8.610;2022-09-09T06:28:28;4.60;;;3.60;;
74777;SDS011;63298;53.164;8.610;2022-09-09T06:30:58;5.53;;;3.35;;
74777;SDS011;63298;53.164;8.610;2022-09-09T06:33:24;6.65;;;3.70;;
74777;SDS011;63298;53.164;8.610;2022-09-09T06:35:52;6.53;;;4.20;;
74777;SDS011;63298;53.164;8.610;2022-09-09T06:38:18;14.88;;;3.75;;
74777;SDS011;63298;53.164;8.610;2022-09-09T06:40:50;4.72;;;3.28;;
74777;SDS011;63298;53.164;8.610;2022-09-09T06:45:52;7.73;;;3.77;;
74777;SDS011;63298;53.164;8.610;2022-09-09T06:48:18;4.35;;;3.72;;
74777;SDS011;63298;53.164;8.610;2022-09-09T06:50:43;5.63;;;3.70;;
74777;SDS011;63298;53.164;8.610;2022-09-09T06:53:08;6.23;;;4.03;;
74777;SDS011;63298;53.164;8.610;2022-09-09T06:55:34;7.03;;;3.77;;
74777;SDS011;63298;53.164;8.610;2022-09-09T06:57:59;4.40;;;3.40;;
74777;SDS011;63298;53.164;8.610;2022-09-09T07:00:24;6.23;;;3.17;;
74777;SDS011;63298;53.164;8.610;2022-09-09T07:02:50;6.68;;;3.28;;
74777;SDS011;63298;53.164;8.610;2022-09-09T07:05:16;4.70;;;3.00;;
74777;SDS011;63298;53.164;8.610;2022-09-09T07:07:41;4.90;;;3.00;;
74777;SDS011;63298;53.164;8.610;2022-09-09T07:10:06;7.68;;;3.25;;
74777;SDS011;63298;53.164;8.610;2022-09-09T07:12:32;5.43;;;3.35;;
74777;SDS011;63298;53.164;8.610;2022-09-09T07:14:57;4.45;;;2.97;;
74777;SDS011;63298;53.164;8.610;2022-09-09T07:17:22;5.57;;;3.07;;
74777;SDS011;63298;53.164;8.610;2022-09-09T07:19:48;5.25;;;2.58;;
74777;SDS011;63298;53.164;8.610;2022-09-09T07:22:13;3.58;;;2.45;;
74777;SDS011;63298;53.164;8.610;2022-09-09T07:24:38;3.30;;;2.70;;
74777;SDS011;63298;53.164;8.610;2022-09-09T07:27:04;3.75;;;2.40;;
74777;SDS011;63298;53.164;8.610;2022-09-09T07:29:29;3.67;;;2.30;;
74777;SDS011;63298;53.164;8.610;2022-09-09T07:31:55;4.43;;;2.30;;
74777;SDS011;63298;53.164;8.610;2022-09-09T07:34:20;3.40;;;2.33;;
74777;SDS011;63298;53.164;8.610;2022-09-09T07:36:45;3.17;;;2.40;;
74777;SDS011;63298;53.164;8.610;2022-09-09T07:39:11;2.27;;;1.60;;
74777;SDS011;63298;53.164;8.610;2022-09-09T07:41:39;4.15;;;2.15;;
74777;SDS011;63298;53.164;8.610;2022-09-09T07:44:11;3.22;;;2.13;;
74777;SDS011;63298;53.164;8.610;2022-09-09T07:46:38;2.97;;;1.85;;
74777;SDS011;63298;53.164;8.610;2022-09-09T07:49:04;2.15;;;1.77;;
74777;SDS011;63298;53.164;8.610;2022-09-09T07:51:33;2.15;;;1.90;;
74777;SDS011;63298;53.164;8.610;2022-09-09T07:54:01;3.35;;;2.40;;
74777;SDS011;63298;53.164;8.610;2022-09-09T07:56:31;4.15;;;2.15;;
74777;SDS011;63298;53.164;8.610;2022-09-09T07:58:57;5.90;;;2.50;;
74777;SDS011;63298;53.164;8.610;2022-09-09T08:01:25;4.32;;;2.45;;
74777;SDS011;63298;53.164;8.610;2022-09-09T08:04:13;4.68;;;2.58;;
74777;SDS011;63298;53.164;8.610;2022-09-09T08:06:40;3.60;;;2.30;;
74777;SDS011;63298;53.164;8.610;2022-09-09T08:09:07;4.15;;;2.58;;
74777;SDS011;63298;53.164;8.610;2022-09-09T08:11:33;4.30;;;2.20;;
74777;SDS011;63298;53.164;8.610;2022-09-09T08:13:59;4.22;;;2.50;;
74777;SDS011;63298;53.164;8.610;2022-09-09T08:16:29;6.95;;;2.90;;
74777;SDS011;63298;53.164;8.610;2022-09-09T08:18:57;4.43;;;2.70;;
74777;SDS011;63298;53.164;8.610;2022-09-09T08:21:26;6.05;;;2.67;;
74777;SDS011;63298;53.164;8.610;2022-09-09T08:23:54;6.40;;;2.97;;
74777;SDS011;63298;53.164;8.610;2022-09-09T08:26:21;6.05;;;2.30;;
74777;SDS011;63298;53.164;8.610;2022-09-09T08:28:49;4.63;;;2.78;;
74777;SDS011;63298;53.164;8.610;2022-09-09T08:31:17;6.97;;;2.17;;
74777;SDS011;63298;53.164;8.610;2022-09-09T08:33:44;6.18;;;2.50;;
74777;SDS011;63298;53.164;8.610;2022-09-09T08:36:10;4.78;;;2.75;;
74777;SDS011;63298;53.164;8.610;2022-09-09T08:38:37;5.30;;;2.78;;
74777;SDS011;63298;53.164;8.610;2022-09-09T08:41:09;2.33;;;2.03;;
74777;SDS011;63298;53.164;8.610;2022-09-09T08:43:43;6.00;;;2.50;;
74777;SDS011;63298;53.164;8.610;2022-09-09T08:46:25;4.28;;;2.30;;
74777;SDS011;63298;53.164;8.610;2022-09-09T08:49:01;5.13;;;2.63;;
74777;SDS011;63298;53.164;8.610;2022-09-09T08:51:36;4.13;;;2.20;;
74777;SDS011;63298;53.164;8.610;2022-09-09T08:54:02;3.53;;;2.75;;
74777;SDS011;63298;53.164;8.610;2022-09-09T08:56:28;7.38;;;2.50;;
74777;SDS011;63298;53.164;8.610;2022-09-09T08:58:59;5.78;;;2.40;;
74777;SDS011;63298;53.164;8.610;2022-09-09T09:01:42;7.40;;;2.53;;
74777;SDS011;63298;53.164;8.610;2022-09-09T09:07:07;5.32;;;2.50;;
74777;SDS011;63298;53.164;8.610;2022-09-09T09:12:22;3.53;;;2.53;;
74777;SDS011;63298;53.164;8.610;2022-09-09T09:14:50;25.95;;;3.03;;
74777;SDS011;63298;53.164;8.610;2022-09-09T09:19:43;3.47;;;2.58;;
74777;SDS011;63298;53.164;8.610;2022-09-09T09:22:15;5.15;;;2.00;;
74777;SDS011;63298;53.164;8.610;2022-09-09T09:24:52;5.65;;;2.20;;
74777;SDS011;63298;53.164;8.610;2022-09-09T09:27:34;3.28;;;2.03;;
74777;SDS011;63298;53.164;8.610;2022-09-09T09:30:15;3.20;;;2.10;;
74777;SDS011;63298;53.164;8.610;2022-09-09T09:32:42;4.07;;;2.00;;
74777;SDS011;63298;53.164;8.610;2022-09-09T09:35:15;6.60;;;2.28;;
74777;SDS011;63298;53.164;8.610;2022-09-09T09:37:40;7.03;;;1.70;;
74777;SDS011;63298;53.164;8.610;2022-09-09T09:40:13;5.07;;;1.90;;
74777;SDS011;63298;53.164;8.610;2022-09-09T09:42:51;3.60;;;1.70;;
74777;SDS011;63298;53.164;8.610;2022-09-09T09:48:00;3.00;;;1.50;;
74777;SDS011;63298;53.164;8.610;2022-09-09T09:50:30;3.97;;;1.77;;
74777;SDS011;63298;53.164;8.610;2022-09-09T09:52:59;3.65;;;1.65;;
74777;SDS011;63298;53.164;8.610;2022-09-09T09:55:28;3.35;;;1.20;;
74777;SDS011;63298;53.164;8.610;2022-09-09T10:00:31;5.22;;;1.50;;
74777;SDS011;63298;53.164;8.610;2022-09-09T10:02:59;8.32;;;1.42;;
74777;SDS011;63298;53.164;8.610;2022-09-09T10:05:26;5.03;;;0.90;;
74777;SDS011;63298;53.164;8.610;2022-09-09T10:08:15;7.40;;;1.27;;
74777;SDS011;63298;53.164;8.610;2022-09-09T10:22:21;5.47;;;1.45;;
74777;SDS011;63298;53.164;8.610;2022-09-09T10:30:18;2.50;;;1.40;;
74777;SDS011;63298;53.164;8.610;2022-09-09T10:57:14;3.72;;;1.70;;
74777;SDS011;63298;53.164;8.610;2022-09-09T11:00:03;4.20;;;1.80;;
74777;SDS011;63298;53.164;8.610;2022-09-09T11:02:33;8.10;;;2.13;;
74777;SDS011;63298;53.164;8.610;2022-09-09T11:05:01;2.65;;;1.92;;
74777;SDS011;63298;53.164;8.610;2022-09-09T11:07:40;7.72;;;2.17;;
74777;SDS011;63298;53.164;8.610;2022-09-09T11:10:58;4.38;;;1.70;;
74777;SDS011;63298;53.164;8.610;2022-09-09T11:13:14;5.15;;;1.70;;
74777;SDS011;63298;53.164;8.610;2022-09-09T11:15:45;6.07;;;1.77;;
74777;SDS011;63298;53.164;8.610;2022-09-09T11:18:19;3.90;;;1.30;;
74777;SDS011;63298;53.164;8.610;2022-09-09T11:20:47;6.10;;;1.83;;
74777;SDS011;63298;53.164;8.610;2022-09-09T11:23:21;7.10;;;1.90;;
74777;SDS011;63298;53.164;8.610;2022-09-09T11:25:53;7.93;;;1.60;;
74777;SDS011;63298;53.164;8.610;2022-09-09T11:33:55;5.88;;;1.63;;
74777;SDS011;63298;53.164;8.610;2022-09-09T11:41:42;4.38;;;1.50;;
74777;SDS011;63298;53.164;8.610;2022-09-09T11:44:11;3.53;;;1.60;;
74777;SDS011;63298;53.164;8.610;2022-09-09T11:46:41;7.00;;;1.58;;
74777;SDS011;63298;53.164;8.610;2022-09-09T11:49:22;3.90;;;1.70;;
74777;SDS011;63298;53.164;8.610;2022-09-09T11:51:52;3.60;;;1.50;;
74777;SDS011;63298;53.164;8.610;2022-09-09T11:54:28;4.18;;;1.60;;
74777;SDS011;63298;53.164;8.610;2022-09-09T11:56:53;4.00;;;1.35;;
74777;SDS011;63298;53.164;8.610;2022-09-09T11:59:26;5.72;;;1.85;;
74777;SDS011;63298;53.164;8.610;2022-09-09T12:02:00;2.75;;;1.70;;
74777;SDS011;63298;53.164;8.610;2022-09-09T12:04:40;5.45;;;1.55;;
74777;SDS011;63298;53.164;8.610;2022-09-09T12:07:26;5.30;;;1.80;;
74777;SDS011;63298;53.164;8.610;2022-09-09T12:09:54;8.50;;;2.05;;
74777;SDS011;63298;53.164;8.610;2022-09-09T12:12:25;8.05;;;2.40;;
74777;SDS011;63298;53.164;8.610;2022-09-09T12:14:59;4.72;;;1.92;;
74777;SDS011;63298;53.164;8.610;2022-09-09T12:17:25;2.63;;;1.83;;
74777;SDS011;63298;53.164;8.610;2022-09-09T12:22:30;8.50;;;2.10;;
74777;SDS011;63298;53.164;8.610;2022-09-09T12:27:46;2.70;;;1.95;;
74777;SDS011;63298;53.164;8.610;2022-09-09T12:30:36;3.70;;;1.75;;
74777;SDS011;63298;53.164;8.610;2022-09-09T12:33:13;7.10;;;2.00;;
74777;SDS011;63298;53.164;8.610;2022-09-09T12:35:43;6.18;;;1.52;;
74777;SDS011;63298;53.164;8.610;2022-09-09T12:38:56;11.10;;;2.03;;
74777;SDS011;63298;53.164;8.610;2022-09-09T12:41:01;7.18;;;1.60;;
74777;SDS011;63298;53.164;8.610;2022-09-09T12:43:27;6.85;;;1.60;;
74777;SDS011;63298;53.164;8.610;2022-09-09T12:45:55;4.97;;;1.42;;
74777;SDS011;63298;53.164;8.610;2022-09-09T12:48:26;5.07;;;1.40;;
74777;SDS011;63298;53.164;8.610;2022-09-09T12:50:55;2.97;;;1.55;;
74777;SDS011;63298;53.164;8.610;2022-09-09T12:56:03;2.60;;;1.02;;
74777;SDS011;63298;53.164;8.610;2022-09-09T12:58:31;3.03;;;1.00;;
74777;SDS011;63298;53.164;8.610;2022-09-09T13:00:56;5.95;;;1.23;;
74777;SDS011;63298;53.164;8.610;2022-09-09T13:03:22;6.90;;;1.42;;
74777;SDS011;63298;53.164;8.610;2022-09-09T13:05:49;4.22;;;1.35;;
74777;SDS011;63298;53.164;8.610;2022-09-09T13:08:15;6.68;;;1.42;;
74777;SDS011;63298;53.164;8.610;2022-09-09T13:13:17;3.22;;;1.25;;
74777;SDS011;63298;53.164;8.610;2022-09-09T13:15:50;3.10;;;1.00;;
74777;SDS011;63298;53.164;8.610;2022-09-09T13:18:17;2.10;;;0.95;;
74777;SDS011;63298;53.164;8.610;2022-09-09T13:20:48;2.65;;;0.98;;
74777;SDS011;63298;53.164;8.610;2022-09-09T13:23:15;3.97;;;0.85;;
74777;SDS011;63298;53.164;8.610;2022-09-09T13:25:52;0.70;;;0.70;;
74777;SDS011;63298;53.164;8.610;2022-09-09T13:28:23;3.58;;;1.00;;
74777;SDS011;63298;53.164;8.610;2022-09-09T13:31:18;1.95;;;0.82;;
74777;SDS011;63298;53.164;8.610;2022-09-09T13:33:46;3.33;;;1.20;;
74777;SDS011;63298;53.164;8.610;2022-09-09T13:36:11;4.68;;;1.35;;
74777;SDS011;63298;53.164;8.610;2022-09-09T13:38:38;5.00;;;1.08;;
74777;SDS011;63298;53.164;8.610;2022-09-09T13:41:21;2.42;;;0.90;;
74777;SDS011;63298;53.164;8.610;2022-09-09T13:43:48;2.88;;;1.00;;
74777;SDS011;63298;53.164;8.610;2022-09-09T13:46:25;5.90;;;1.63;;
74777;SDS011;63298;53.164;8.610;2022-09-09T13:49:18;4.50;;;1.02;;
74777;SDS011;63298;53.164;8.610;2022-09-09T13:51:47;2.38;;;1.23;;
74777;SDS011;63298;53.164;8.610;2022-09-09T13:54:15;6.75;;;1.48;;
74777;SDS011;63298;53.164;8.610;2022-09-09T13:56:41;2.88;;;1.30;;
74777;SDS011;63298;53.164;8.610;2022-09-09T13:59:15;4.05;;;1.50;;
74777;SDS011;63298;53.164;8.610;2022-09-09T14:01:42;5.10;;;1.52;;
74777;SDS011;63298;53.164;8.610;2022-09-09T14:04:07;3.88;;;1.30;;
74777;SDS011;63298;53.164;8.610;2022-09-09T14:06:34;4.65;;;1.80;;
74777;SDS011;63298;53.164;8.610;2022-09-09T14:09:00;3.28;;;1.88;;
74777;SDS011;63298;53.164;8.610;2022-09-09T14:11:25;4.43;;;1.75;;
74777;SDS011;63298;53.164;8.610;2022-09-09T14:13:51;3.00;;;1.60;;
74777;SDS011;63298;53.164;8.610;2022-09-09T14:16:16;3.47;;;1.77;;
74777;SDS011;63298;53.164;8.610;2022-09-09T14:18:42;4.32;;;1.88;;
74777;SDS011;63298;53.164;8.610;2022-09-09T14:21:08;7.53;;;1.73;;
74777;SDS011;63298;53.164;8.610;2022-09-09T14:23:33;3.27;;;1.63;;
74777;SDS011;63298;53.164;8.610;2022-09-09T14:25:59;5.07;;;1.90;;
74777;SDS011;63298;53.164;8.610;2022-09-09T14:28:24;3.80;;;2.00;;
74777;SDS011;63298;53.164;8.610;2022-09-09T14:30:49;8.68;;;2.13;;
74777;SDS011;63298;53.164;8.610;2022-09-09T14:33:15;4.67;;;2.17;;
74777;SDS011;63298;53.164;8.610;2022-09-09T14:35:41;4.65;;;2.60;;
74777;SDS011;63298;53.164;8.610;2022-09-09T14:38:07;4.18;;;2.28;;
74777;SDS011;63298;53.164;8.610;2022-09-09T14:40:34;8.23;;;2.75;;
74777;SDS011;63298;53.164;8.610;2022-09-09T14:43:01;6.55;;;2.50;;
74777;SDS011;63298;53.164;8.610;2022-09-09T14:45:27;2.75;;;2.10;;
74777;SDS011;63298;53.164;8.610;2022-09-09T14:47:53;9.90;;;2.80;;
74777;SDS011;63298;53.164;8.610;2022-09-09T14:50:18;5.18;;;2.70;;
74777;SDS011;63298;53.164;8.610;2022-09-09T14:52:44;6.00;;;2.83;;
74777;SDS011;63298;53.164;8.610;2022-09-09T14:55:10;4.60;;;2.97;;
74777;SDS011;63298;53.164;8.610;2022-09-09T14:57:36;7.32;;;3.78;;
74777;SDS011;63298;53.164;8.610;2022-09-09T15:00:04;8.50;;;3.60;;
74777;SDS011;63298;53.164;8.610;2022-09-09T15:02:30;8.68;;;4.05;;
74777;SDS011;63298;53.164;8.610;2022-09-09T15:04:55;7.77;;;3.90;;
74777;SDS011;63298;53.164;8.610;2022-09-09T15:07:20;7.28;;;3.75;;
74777;SDS011;63298;53.164;8.610;2022-09-09T15:09:46;10.20;;;3.97;;
74777;SDS011;63298;53.164;8.610;2022-09-09T15:12:11;6.80;;;3.47;;
74777;SDS011;63298;53.164;8.610;2022-09-09T15:14:36;9.33;;;2.97;;
74777;SDS011;63298;53.164;8.610;2022-09-09T15:17:01;5.13;;;2.73;;
74777;SDS011;63298;53.164;8.610;2022-09-09T15:19:27;5.35;;;2.35;;
74777;SDS011;63298;53.164;8.610;2022-09-09T15:21:52;8.43;;;2.93;;
74777;SDS011;63298;53.164;8.610;2022-09-09T15:24:17;6.77;;;2.93;;
74777;SDS011;63298;53.164;8.610;2022-09-09T15:26:43;4.10;;;2.67;;
74777;SDS011;63298;53.164;8.610;2022-09-09T15:29:08;6.53;;;2.70;;
74777;SDS011;63298;53.164;8.610;2022-09-09T15:31:34;7.30;;;2.75;;
74777;SDS011;63298;53.164;8.610;2022-09-09T15:34:03;9.18;;;2.50;;
74777;SDS011;63298;53.164;8.610;2022-09-09T15:36:31;10.23;;;2.33;;
74777;SDS011;63298;53.164;8.610;2022-09-09T15:39:03;8.13;;;2.90;;
74777;SDS011;63298;53.164;8.610;2022-09-09T15:41:31;4.47;;;2.20;;
74777;SDS011;63298;53.164;8.610;2022-09-09T15:43:57;7.32;;;2.47;;
74777;SDS011;63298;53.164;8.610;2022-09-09T15:48:51;7.22;;;2.28;;
74777;SDS011;63298;53.164;8.610;2022-09-09T15:51:16;6.50;;;2.15;;
74777;SDS011;63298;53.164;8.610;2022-09-09T15:53:42;4.55;;;2.13;;
74777;SDS011;63298;53.164;8.610;2022-09-09T15:56:07;7.63;;;2.30;;
74777;SDS011;63298;53.164;8.610;2022-09-09T15:58:33;7.60;;;2.28;;
74777;SDS011;63298;53.164;8.610;2022-09-09T16:01:03;4.53;;;2.17;;
74777;SDS011;63298;53.164;8.610;2022-09-09T16:03:33;3.88;;;2.10;;
74777;SDS011;63298;53.164;8.610;2022-09-09T16:06:02;4.93;;;2.03;;
74777;SDS011;63298;53.164;8.610;2022-09-09T16:08:32;6.07;;;2.67;;
74777;SDS011;63298;53.164;8.610;2022-09-09T16:11:08;5.97;;;1.92;;
74777;SDS011;63298;53.164;8.610;2022-09-09T16:13:34;10.48;;;2.30;;
74777;SDS011;63298;53.164;8.610;2022-09-09T16:16:01;3.65;;;2.03;;
74777;SDS011;63298;53.164;8.610;2022-09-09T16:18:32;6.20;;;2.10;;
74777;SDS011;63298;53.164;8.610;2022-09-09T16:21:25;10.52;;;1.85;;
74777;SDS011;63298;53.164;8.610;2022-09-09T16:23:54;4.13;;;1.77;;
74777;SDS011;63298;53.164;8.610;2022-09-09T16:26:21;2.58;;;1.83;;
74777;SDS011;63298;53.164;8.610;2022-09-09T16:28:47;3.70;;;1.70;;
74777;SDS011;63298;53.164;8.610;2022-09-09T16:31:15;4.28;;;1.65;;
74777;SDS011;63298;53.164;8.610;2022-09-09T16:33:41;5.88;;;1.80;;
74777;SDS011;63298;53.164;8.610;2022-09-09T16:36:11;3.40;;;1.45;;
74777;SDS011;63298;53.164;8.610;2022-09-09T16:38:38;2.85;;;1.42;;
74777;SDS011;63298;53.164;8.610;2022-09-09T16:41:05;4.20;;;1.77;;
74777;SDS011;63298;53.164;8.610;2022-09-09T16:43:31;3.35;;;1.50;;
74777;SDS011;63298;53.164;8.610;2022-09-09T16:45:57;3.42;;;1.50;;
74777;SDS011;63298;53.164;8.610;2022-09-09T16:48:23;2.37;;;1.63;;
74777;SDS011;63298;53.164;8.610;2022-09-09T16:50:48;7.03;;;2.90;;
74777;SDS011;63298;53.164;8.610;2022-09-09T16:53:13;2.53;;;1.90;;
74777;SDS011;63298;53.164;8.610;2022-09-09T16:55:39;3.30;;;1.80;;
74777;SDS011;63298;53.164;8.610;2022-09-09T16:58:06;5.13;;;1.60;;
74777;SDS011;63298;53.164;8.610;2022-09-09T17:00:32;4.05;;;1.67;;
74777;SDS011;63298;53.164;8.610;2022-09-09T17:02:57;4.35;;;1.60;;
74777;SDS011;63298;53.164;8.610;2022-09-09T17:05:22;5.63;;;1.80;;
74777;SDS011;63298;53.164;8.610;2022-09-09T17:07:48;2.37;;;1.73;;
74777;SDS011;63298;53.164;8.610;2022-09-09T17:10:13;4.20;;;1.58;;